Time;durP1;ratioP1;P1;durP2;ratioP2;P2;SDS_P1;SDS_P2;PMS_P1;PMS_P2;Temp;Humidity;BMP_temperature;BMP_pressure;BME280_temperature;BME280_humidity;BME280_pressure;Samples;Min_cycle;Max_cycle;Signal;HPM_P1;HPM_P2
2022/08/03 00:01:17;;;;;;;3.92;2.50;;;;;;;;;;5046180;28;20491;-80
2022/08/03 00:03:42;;;;;;;10.32;2.67;;;;;;;;;;5042261;28;20025;-81
2022/08/03 00:06:08;;;;;;;5.53;2.60;;;;;;;;;;5037818;28;20029;-81
2022/08/03 00:08:33;;;;;;;6.03;2.70;;;;;;;;;;5042937;28;20025;-81
2022/08/03 00:10:59;;;;;;;3.00;2.08;;;;;;;;;;5041813;28;20025;-83
2022/08/03 00:13:25;;;;;;;5.78;4.00;;;;;;;;;;5042939;28;20119;-83
2022/08/03 00:15:50;;;;;;;2.78;2.10;;;;;;;;;;5041640;28;20484;-84
2022/08/03 00:18:16;;;;;;;6.13;2.58;;;;;;;;;;5025382;28;20059;-82
2022/08/03 00:20:41;;;;;;;6.78;2.60;;;;;;;;;;5039368;28;20311;-84
2022/08/03 00:23:07;;;;;;;2.92;2.33;;;;;;;;;;5027955;28;20029;-83
2022/08/03 00:25:35;;;;;;;5.40;2.88;;;;;;;;;;5036971;28;20040;-85
2022/08/03 00:28:02;;;;;;;4.38;3.05;;;;;;;;;;5026163;28;20033;-82
2022/08/03 00:30:28;;;;;;;5.88;2.58;;;;;;;;;;5049682;28;20021;-83
2022/08/03 00:32:53;;;;;;;2.95;2.50;;;;;;;;;;5043417;28;20039;-84
2022/08/03 00:35:19;;;;;;;8.20;2.50;;;;;;;;;;5022864;28;20124;-83
2022/08/03 00:37:44;;;;;;;7.43;3.15;;;;;;;;;;5041775;28;20036;-83
2022/08/03 00:40:12;;;;;;;3.20;2.08;;;;;;;;;;5041711;28;20037;-84
2022/08/03 00:42:56;;;;;;;5.43;2.30;;;;;;;;;;5042600;28;20040;-84
2022/08/03 00:45:27;;;;;;;4.93;2.13;;;;;;;;;;5042775;28;20029;-83
2022/08/03 00:47:53;;;;;;;4.07;2.67;;;;;;;;;;5044489;28;20017;-84
2022/08/03 00:50:21;;;;;;;3.85;2.47;;;;;;;;;;5049504;28;21698;-84
2022/08/03 00:52:47;;;;;;;3.63;2.30;;;;;;;;;;5040015;28;20035;-83
2022/08/03 00:55:13;;;;;;;2.33;2.10;;;;;;;;;;5041008;28;20116;-83
2022/08/03 00:57:38;;;;;;;4.22;2.20;;;;;;;;;;5056536;28;20045;-84
2022/08/03 01:00:06;;;;;;;2.55;2.22;;;;;;;;;;5040123;28;20044;-83
2022/08/03 01:02:32;;;;;;;4.18;2.42;;;;;;;;;;5040970;28;20394;-83
2022/08/03 01:04:57;;;;;;;3.88;2.45;;;;;;;;;;5039608;28;20033;-83
2022/08/03 01:07:55;;;;;;;3.03;2.30;;;;;;;;;;5037538;28;20029;-82
2022/08/03 01:10:27;;;;;;;3.50;2.50;;;;;;;;;;5036459;28;20030;-82
2022/08/03 01:13:06;;;;;;;3.05;2.33;;;;;;;;;;5035425;28;20025;-83
2022/08/03 01:15:49;;;;;;;4.80;2.15;;;;;;;;;;5039157;28;20053;-83
2022/08/03 01:18:21;;;;;;;3.15;2.58;;;;;;;;;;5030410;28;20029;-82
2022/08/03 01:20:50;;;;;;;3.75;2.35;;;;;;;;;;5047703;28;20021;-84
2022/08/03 01:23:31;;;;;;;4.90;2.17;;;;;;;;;;5044745;28;20029;-85
2022/08/03 01:26:03;;;;;;;2.40;2.20;;;;;;;;;;5024336;28;20049;-84
2022/08/03 01:28:47;;;;;;;4.72;2.50;;;;;;;;;;5022474;28;20033;-85
2022/08/03 01:31:17;;;;;;;5.13;2.50;;;;;;;;;;5038500;28;20036;-84
2022/08/03 01:33:48;;;;;;;4.30;2.47;;;;;;;;;;5012890;28;20099;-83
2022/08/03 01:36:20;;;;;;;4.57;2.67;;;;;;;;;;5041005;28;20395;-83
2022/08/03 01:38:54;;;;;;;3.15;2.30;;;;;;;;;;5029110;28;20027;-83
2022/08/03 01:41:23;;;;;;;5.22;2.67;;;;;;;;;;5015508;28;20033;-83
2022/08/03 01:43:51;;;;;;;7.75;2.85;;;;;;;;;;5038830;28;20032;-83
2022/08/03 01:46:19;;;;;;;4.55;2.63;;;;;;;;;;5036085;28;20357;-84
2022/08/03 01:48:47;;;;;;;4.25;2.78;;;;;;;;;;5037464;28;20047;-83
2022/08/03 01:51:15;;;;;;;3.75;2.78;;;;;;;;;;5034707;28;20025;-82
2022/08/03 01:53:44;;;;;;;10.07;3.30;;;;;;;;;;5039640;28;20037;-84
2022/08/03 01:56:12;;;;;;;5.53;3.35;;;;;;;;;;5041872;28;20083;-84
2022/08/03 01:58:39;;;;;;;6.10;3.00;;;;;;;;;;5047160;28;20025;-83
2022/08/03 02:01:06;;;;;;;4.78;2.60;;;;;;;;;;5052938;28;20041;-84
2022/08/03 02:03:37;;;;;;;6.68;2.85;;;;;;;;;;5031091;28;20105;-83
2022/08/03 02:06:03;;;;;;;5.75;2.88;;;;;;;;;;5044274;28;20033;-84
2022/08/03 02:08:31;;;;;;;5.00;3.38;;;;;;;;;;5038942;28;20079;-84
2022/08/03 02:10:58;;;;;;;5.25;3.08;;;;;;;;;;5045781;28;20049;-84
2022/08/03 02:13:25;;;;;;;6.38;3.00;;;;;;;;;;5030615;28;20048;-84
2022/08/03 02:15:52;;;;;;;7.00;2.90;;;;;;;;;;5040135;28;20025;-84
2022/08/03 02:18:19;;;;;;;7.18;3.20;;;;;;;;;;5039907;28;20033;-84
2022/08/03 02:20:46;;;;;;;3.97;2.88;;;;;;;;;;5030366;28;20036;-84
2022/08/03 02:23:14;;;;;;;7.53;2.80;;;;;;;;;;5023045;28;20033;-85
2022/08/03 02:25:46;;;;;;;4.30;2.92;;;;;;;;;;5043156;28;20025;-85
2022/08/03 02:28:16;;;;;;;6.90;3.67;;;;;;;;;;5043819;28;20048;-84
2022/08/03 02:30:45;;;;;;;5.93;3.40;;;;;;;;;;5040168;28;20060;-84
2022/08/03 02:33:16;;;;;;;3.42;2.50;;;;;;;;;;5038156;28;20029;-85
2022/08/03 02:35:42;;;;;;;9.25;3.22;;;;;;;;;;5041251;28;20391;-84
2022/08/03 02:38:10;;;;;;;6.53;3.45;;;;;;;;;;5038521;28;20041;-84
2022/08/03 02:40:37;;;;;;;4.88;3.13;;;;;;;;;;5043601;28;20081;-84
2022/08/03 02:43:06;;;;;;;6.30;3.20;;;;;;;;;;5030139;28;20025;-84
2022/08/03 02:45:35;;;;;;;7.05;3.42;;;;;;;;;;5053080;28;20025;-84
2022/08/03 02:48:03;;;;;;;5.88;3.70;;;;;;;;;;5055053;28;20064;-83
2022/08/03 02:50:32;;;;;;;4.10;3.00;;;;;;;;;;5060237;28;20005;-84
2022/08/03 02:52:58;;;;;;;6.03;3.17;;;;;;;;;;5051209;28;20025;-83
2022/08/03 02:55:26;;;;;;;6.03;3.33;;;;;;;;;;5052085;28;20407;-84
2022/08/03 02:57:53;;;;;;;6.25;3.10;;;;;;;;;;5043243;28;20021;-84
2022/08/03 03:00:18;;;;;;;5.57;3.60;;;;;;;;;;5032109;28;20506;-84
2022/08/03 03:02:45;;;;;;;5.82;3.42;;;;;;;;;;5040632;28;20260;-82
2022/08/03 03:05:10;;;;;;;4.90;3.10;;;;;;;;;;5037234;28;20026;-82
2022/08/03 03:07:36;;;;;;;6.28;3.20;;;;;;;;;;5040713;28;20053;-81
2022/08/03 03:10:03;;;;;;;5.03;3.40;;;;;;;;;;5036664;28;20031;-84
2022/08/03 03:12:30;;;;;;;5.10;3.92;;;;;;;;;;5020869;28;20084;-82
2022/08/03 03:14:56;;;;;;;4.55;3.53;;;;;;;;;;5025962;28;20017;-82
2022/08/03 03:17:22;;;;;;;4.07;3.10;;;;;;;;;;5035637;28;20040;-82
2022/08/03 03:19:49;;;;;;;5.90;3.15;;;;;;;;;;5039754;28;20018;-82
2022/08/03 03:22:16;;;;;;;5.45;3.63;;;;;;;;;;5042032;28;20041;-82
2022/08/03 03:24:42;;;;;;;7.22;3.25;;;;;;;;;;5021858;28;20024;-83
2022/08/03 03:27:08;;;;;;;6.25;3.15;;;;;;;;;;5040369;28;20026;-81
2022/08/03 03:29:34;;;;;;;5.95;3.13;;;;;;;;;;5035143;28;20098;-81
2022/08/03 03:32:00;;;;;;;8.27;3.00;;;;;;;;;;5031917;28;20037;-83
2022/08/03 03:34:28;;;;;;;5.53;3.28;;;;;;;;;;5040697;28;20509;-81
2022/08/03 03:36:54;;;;;;;5.65;3.25;;;;;;;;;;5030878;28;20111;-82
2022/08/03 03:39:19;;;;;;;5.65;3.50;;;;;;;;;;5040736;28;20021;-82
2022/08/03 03:41:45;;;;;;;6.00;3.42;;;;;;;;;;5040938;28;20080;-84
2022/08/03 03:44:11;;;;;;;4.15;3.20;;;;;;;;;;5041276;28;20044;-84
2022/08/03 03:46:37;;;;;;;3.05;2.72;;;;;;;;;;5015172;28;20029;-84
2022/08/03 03:49:05;;;;;;;6.95;3.42;;;;;;;;;;5040747;28;20026;-83
2022/08/03 03:51:30;;;;;;;5.20;3.20;;;;;;;;;;5051057;28;20073;-83
2022/08/03 03:53:57;;;;;;;4.72;2.80;;;;;;;;;;5037478;28;20049;-83
2022/08/03 03:56:22;;;;;;;5.70;3.40;;;;;;;;;;5033498;28;20392;-82
2022/08/03 03:58:48;;;;;;;11.88;3.35;;;;;;;;;;5051278;23;20034;-83
2022/08/03 04:01:13;;;;;;;12.10;3.67;;;;;;;;;;5027868;28;20033;-83
2022/08/03 04:03:39;;;;;;;4.93;3.38;;;;;;;;;;5064348;28;20073;-82
2022/08/03 04:11:39;;;;;;;3.17;2.67;;;;;;;;;;5060345;28;20078;-84
2022/08/03 04:14:16;;;;;;;6.55;3.40;;;;;;;;;;5062252;28;20041;-83
2022/08/03 04:16:47;;;;;;;6.00;3.45;;;;;;;;;;5034893;28;20032;-83
2022/08/03 04:19:18;;;;;;;6.55;2.90;;;;;;;;;;5047348;28;20399;-83
2022/08/03 04:21:48;;;;;;;6.17;3.27;;;;;;;;;;5058343;28;20053;-83
2022/08/03 04:24:15;;;;;;;5.97;3.45;;;;;;;;;;5017688;28;20314;-82
2022/08/03 04:26:43;;;;;;;5.25;3.20;;;;;;;;;;5040259;28;20032;-83
2022/08/03 04:29:10;;;;;;;4.30;3.08;;;;;;;;;;5033681;28;20068;-82
2022/08/03 04:31:38;;;;;;;5.30;3.20;;;;;;;;;;5042335;28;20033;-83
2022/08/03 04:34:03;;;;;;;5.32;2.85;;;;;;;;;;5018542;28;20048;-83
2022/08/03 04:36:32;;;;;;;9.48;3.70;;;;;;;;;;5055464;28;20029;-83
2022/08/03 04:39:24;;;;;;;7.22;3.22;;;;;;;;;;5048976;28;20467;-83
2022/08/03 04:41:53;;;;;;;4.53;3.25;;;;;;;;;;5037107;28;20047;-83
2022/08/03 04:44:22;;;;;;;5.22;3.30;;;;;;;;;;5040667;28;20025;-82
2022/08/03 04:46:48;;;;;;;4.75;3.47;;;;;;;;;;5033121;28;20048;-82
2022/08/03 04:49:14;;;;;;;6.35;3.17;;;;;;;;;;5052717;28;20029;-83
2022/08/03 04:51:39;;;;;;;6.13;3.40;;;;;;;;;;5059342;28;20395;-83
2022/08/03 04:54:06;;;;;;;5.95;3.35;;;;;;;;;;5043487;28;20037;-82
2022/08/03 04:56:33;;;;;;;5.55;3.17;;;;;;;;;;5044029;28;20227;-83
2022/08/03 04:58:58;;;;;;;3.97;3.35;;;;;;;;;;5049342;28;20024;-83
2022/08/03 05:01:23;;;;;;;5.43;3.53;;;;;;;;;;5034422;28;20029;-82
2022/08/03 05:03:50;;;;;;;6.28;3.88;;;;;;;;;;5049469;28;20036;-84
2022/08/03 05:06:15;;;;;;;6.35;3.97;;;;;;;;;;5045904;28;20028;-83
2022/08/03 05:08:41;;;;;;;5.05;4.32;;;;;;;;;;5016527;28;20487;-84
2022/08/03 05:11:06;;;;;;;5.53;3.22;;;;;;;;;;5046062;28;20147;-84
2022/08/03 05:13:32;;;;;;;8.15;3.95;;;;;;;;;;5052111;28;20623;-84
2022/08/03 05:15:57;;;;;;;5.90;3.38;;;;;;;;;;5055090;28;20017;-84
2022/08/03 05:18:22;;;;;;;7.20;4.03;;;;;;;;;;5050422;28;20287;-84
2022/08/03 05:20:48;;;;;;;4.15;3.58;;;;;;;;;;5036559;28;20013;-83
2022/08/03 05:23:13;;;;;;;7.75;3.65;;;;;;;;;;5046737;28;20167;-82
2022/08/03 05:25:39;;;;;;;5.60;3.78;;;;;;;;;;5060558;28;20084;-83
2022/08/03 05:28:04;;;;;;;8.68;3.70;;;;;;;;;;5049812;28;20021;-81
2022/08/03 05:30:29;;;;;;;5.75;3.35;;;;;;;;;;5060236;28;20024;-82
2022/08/03 05:32:55;;;;;;;7.60;3.28;;;;;;;;;;5055284;28;20028;-81
2022/08/03 05:35:20;;;;;;;6.15;3.75;;;;;;;;;;5062623;28;20032;-83
2022/08/03 05:37:45;;;;;;;6.95;3.90;;;;;;;;;;5055183;28;20486;-82
2022/08/03 05:40:11;;;;;;;8.07;3.92;;;;;;;;;;5039796;28;20477;-82
2022/08/03 05:42:37;;;;;;;6.20;3.40;;;;;;;;;;5027759;28;20038;-83
2022/08/03 05:45:13;;;;;;;7.35;3.40;;;;;;;;;;5040330;28;20021;-82
2022/08/03 05:47:39;;;;;;;5.78;3.58;;;;;;;;;;5055915;28;20025;-83
2022/08/03 05:50:05;;;;;;;4.30;3.40;;;;;;;;;;5039782;28;20356;-83
2022/08/03 05:52:30;;;;;;;6.93;3.78;;;;;;;;;;5057733;28;20544;-82
2022/08/03 05:54:56;;;;;;;8.02;3.67;;;;;;;;;;5046926;28;20486;-83
2022/08/03 05:57:21;;;;;;;5.38;3.40;;;;;;;;;;5054067;28;20067;-82
2022/08/03 05:59:46;;;;;;;8.27;4.68;;;;;;;;;;5057698;28;20017;-83
2022/08/03 06:02:12;;;;;;;5.45;3.45;;;;;;;;;;5044479;28;20031;-84
2022/08/03 06:04:38;;;;;;;5.00;3.38;;;;;;;;;;5054153;28;20124;-83
2022/08/03 06:07:03;;;;;;;7.95;3.40;;;;;;;;;;5053636;28;20028;-82
2022/08/03 06:09:28;;;;;;;5.28;3.72;;;;;;;;;;5046547;28;20410;-83
2022/08/03 06:11:54;;;;;;;6.15;3.50;;;;;;;;;;5047376;28;20056;-83
2022/08/03 06:14:19;;;;;;;7.55;3.80;;;;;;;;;;5047074;28;20029;-82
2022/08/03 06:16:44;;;;;;;6.57;3.00;;;;;;;;;;5045229;28;20036;-83
2022/08/03 06:19:09;;;;;;;8.48;3.40;;;;;;;;;;5044304;28;20483;-83
2022/08/03 06:21:35;;;;;;;6.32;3.33;;;;;;;;;;5048275;28;20029;-82
2022/08/03 06:24:00;;;;;;;5.38;3.45;;;;;;;;;;5044889;28;20127;-83
2022/08/03 06:26:26;;;;;;;6.28;3.33;;;;;;;;;;5037937;28;20529;-82
2022/08/03 06:28:53;;;;;;;5.82;2.97;;;;;;;;;;5048750;28;20111;-83
2022/08/03 06:31:19;;;;;;;5.25;3.50;;;;;;;;;;5047347;28;20303;-83
2022/08/03 06:33:44;;;;;;;5.10;3.45;;;;;;;;;;5054459;28;20118;-82
2022/08/03 06:36:09;;;;;;;11.05;3.70;;;;;;;;;;5057275;28;20027;-82
2022/08/03 06:38:35;;;;;;;6.45;3.30;;;;;;;;;;5045539;28;20026;-82
2022/08/03 06:41:00;;;;;;;7.97;3.13;;;;;;;;;;5037238;28;20024;-83
2022/08/03 06:43:26;;;;;;;3.88;2.70;;;;;;;;;;5046809;28;20027;-83
2022/08/03 06:45:51;;;;;;;4.05;3.35;;;;;;;;;;5054476;28;20095;-83
2022/08/03 06:48:16;;;;;;;4.72;3.03;;;;;;;;;;5050345;28;20025;-83
2022/08/03 06:50:43;;;;;;;8.10;3.72;;;;;;;;;;5063313;28;20077;-83
2022/08/03 06:53:09;;;;;;;4.05;3.10;;;;;;;;;;5049447;28;20040;-83
2022/08/03 06:55:34;;;;;;;5.38;2.95;;;;;;;;;;5051819;28;20028;-83
2022/08/03 06:57:59;;;;;;;6.22;2.80;;;;;;;;;;5048877;28;20491;-83
2022/08/03 07:00:26;;;;;;;6.30;2.78;;;;;;;;;;5058121;28;20024;-83
2022/08/03 07:02:52;;;;;;;5.72;3.00;;;;;;;;;;5039941;28;20071;-83
2022/08/03 07:05:18;;;;;;;5.20;2.67;;;;;;;;;;5039011;28;20483;-84
2022/08/03 07:07:43;;;;;;;4.78;3.28;;;;;;;;;;5038343;28;20033;-84
2022/08/03 07:10:10;;;;;;;5.55;2.70;;;;;;;;;;5049565;28;20028;-84
2022/08/03 07:12:36;;;;;;;7.05;2.75;;;;;;;;;;5040024;28;20090;-84
2022/08/03 07:15:04;;;;;;;6.65;2.50;;;;;;;;;;5039937;28;20029;-84
2022/08/03 07:17:32;;;;;;;4.00;2.60;;;;;;;;;;5047944;28;20025;-84
2022/08/03 07:19:58;;;;;;;4.68;3.20;;;;;;;;;;5050660;28;20025;-84
2022/08/03 07:22:23;;;;;;;5.20;2.67;;;;;;;;;;5044050;28;20038;-84
2022/08/03 07:24:49;;;;;;;12.45;2.65;;;;;;;;;;5052591;28;20025;-84
2022/08/03 07:27:17;;;;;;;5.15;2.63;;;;;;;;;;5050817;28;20024;-84
2022/08/03 07:29:43;;;;;;;7.05;2.50;;;;;;;;;;5057708;28;20039;-84
2022/08/03 07:32:08;;;;;;;2.78;2.35;;;;;;;;;;5041017;28;20108;-84
2022/08/03 07:34:33;;;;;;;4.38;2.15;;;;;;;;;;5058217;28;20579;-84
2022/08/03 07:36:59;;;;;;;2.30;2.10;;;;;;;;;;5023561;28;20040;-84
2022/08/03 07:39:24;;;;;;;4.63;2.17;;;;;;;;;;5038907;28;20033;-84
2022/08/03 07:41:50;;;;;;;4.90;2.30;;;;;;;;;;5038701;28;20289;-84
2022/08/03 07:44:17;;;;;;;5.47;2.10;;;;;;;;;;5046754;28;20031;-84
2022/08/03 07:46:43;;;;;;;4.80;2.47;;;;;;;;;;5051982;28;20036;-84
2022/08/03 07:49:08;;;;;;;2.35;2.03;;;;;;;;;;5058038;28;20029;-84
2022/08/03 07:51:34;;;;;;;3.25;2.10;;;;;;;;;;5057048;28;20033;-83
2022/08/03 07:54:00;;;;;;;3.10;2.45;;;;;;;;;;5054898;28;20024;-84
2022/08/03 07:56:25;;;;;;;7.63;2.13;;;;;;;;;;5056101;28;20474;-84
2022/08/03 07:58:51;;;;;;;5.07;2.13;;;;;;;;;;5052915;28;20556;-84
2022/08/03 08:01:18;;;;;;;2.65;2.25;;;;;;;;;;5041040;28;20029;-82
2022/08/03 08:03:47;;;;;;;3.22;2.08;;;;;;;;;;5044928;28;20052;-84
2022/08/03 08:06:12;;;;;;;5.45;1.75;;;;;;;;;;5049386;28;20441;-83
2022/08/03 08:08:38;;;;;;;1.70;1.60;;;;;;;;;;5058162;28;20036;-84
2022/08/03 08:11:04;;;;;;;4.35;1.92;;;;;;;;;;5066050;28;20397;-84
2022/08/03 08:13:30;;;;;;;4.38;1.90;;;;;;;;;;5057737;28;20105;-84
2022/08/03 08:15:55;;;;;;;2.33;1.77;;;;;;;;;;5040512;28;20086;-84
2022/08/03 08:18:21;;;;;;;5.43;2.60;;;;;;;;;;5051108;28;20056;-84
2022/08/03 08:20:46;;;;;;;2.67;2.05;;;;;;;;;;5055681;28;20055;-84
2022/08/03 08:23:12;;;;;;;3.72;2.08;;;;;;;;;;5048078;28;20115;-83
2022/08/03 08:25:37;;;;;;;2.08;1.80;;;;;;;;;;5040711;28;20029;-83
2022/08/03 08:28:03;;;;;;;4.95;1.90;;;;;;;;;;5051423;28;20100;-83
2022/08/03 08:30:30;;;;;;;4.53;1.60;;;;;;;;;;5038161;28;20379;-84
2022/08/03 08:32:56;;;;;;;2.88;1.80;;;;;;;;;;5034727;28;20115;-83
2022/08/03 08:35:22;;;;;;;2.85;2.03;;;;;;;;;;5054050;28;20035;-84
2022/08/03 08:37:47;;;;;;;2.22;1.60;;;;;;;;;;5056502;28;20025;-83
2022/08/03 08:40:13;;;;;;;2.40;1.63;;;;;;;;;;5038924;28;20061;-84
2022/08/03 08:42:42;;;;;;;1.70;1.60;;;;;;;;;;5038659;28;20037;-84
2022/08/03 08:45:10;;;;;;;1.30;1.20;;;;;;;;;;5053211;28;20075;-84
2022/08/03 08:47:43;;;;;;;1.48;1.10;;;;;;;;;;5054616;28;20055;-84
2022/08/03 08:50:09;;;;;;;6.28;1.50;;;;;;;;;;5061472;28;20029;-84
2022/08/03 08:52:38;;;;;;;1.90;1.50;;;;;;;;;;5059154;28;20509;-83
2022/08/03 08:55:06;;;;;;;3.65;1.77;;;;;;;;;;5051516;28;20037;-84
2022/08/03 08:57:36;;;;;;;3.65;1.42;;;;;;;;;;5057463;28;20021;-84
2022/08/03 09:00:09;;;;;;;1.90;1.42;;;;;;;;;;5038725;28;20089;-84
2022/08/03 09:02:35;;;;;;;5.70;1.30;;;;;;;;;;5039728;28;20029;-83
2022/08/03 09:05:01;;;;;;;1.58;1.42;;;;;;;;;;5040877;28;20060;-86
2022/08/03 09:07:27;;;;;;;2.17;1.38;;;;;;;;;;5038357;28;20025;-84
2022/08/03 09:09:52;;;;;;;2.28;1.33;;;;;;;;;;5058073;28;20025;-84
2022/08/03 09:12:18;;;;;;;2.05;1.42;;;;;;;;;;5052809;28;20071;-85
2022/08/03 09:14:44;;;;;;;2.15;1.30;;;;;;;;;;5057573;28;20040;-84
2022/08/03 09:17:09;;;;;;;2.15;1.23;;;;;;;;;;5054347;28;20029;-85
2022/08/03 09:19:35;;;;;;;1.25;1.20;;;;;;;;;;5046694;28;20013;-84
2022/08/03 09:22:14;;;;;;;1.80;1.60;;;;;;;;;;5057890;28;20017;-84
2022/08/03 09:24:55;;;;;;;2.25;1.42;;;;;;;;;;5048303;28;20056;-84
2022/08/03 09:27:20;;;;;;;1.38;1.17;;;;;;;;;;5049605;28;20029;-84
2022/08/03 09:29:51;;;;;;;4.38;1.40;;;;;;;;;;5049018;28;20052;-84
2022/08/03 09:32:23;;;;;;;4.47;1.30;;;;;;;;;;5049109;28;20029;-84
2022/08/03 09:34:51;;;;;;;1.88;1.13;;;;;;;;;;5040084;28;20094;-84
2022/08/03 09:37:18;;;;;;;2.00;1.30;;;;;;;;;;5052935;28;20028;-84
2022/08/03 09:39:44;;;;;;;1.58;1.13;;;;;;;;;;5038233;28;20026;-83
2022/08/03 09:42:18;;;;;;;1.40;1.27;;;;;;;;;;5038724;28;20402;-83
2022/08/03 09:44:46;;;;;;;3.28;1.40;;;;;;;;;;5048251;28;20039;-84
2022/08/03 09:47:13;;;;;;;4.35;1.27;;;;;;;;;;5054851;28;20437;-84
2022/08/03 09:49:40;;;;;;;1.30;1.20;;;;;;;;;;5056871;28;20100;-83
2022/08/03 09:52:15;;;;;;;1.52;1.15;;;;;;;;;;5051004;28;20104;-84
2022/08/03 09:54:41;;;;;;;1.08;1.05;;;;;;;;;;5056095;28;20036;-83
2022/08/03 09:57:07;;;;;;;1.58;1.30;;;;;;;;;;5052706;28;20025;-83
2022/08/03 09:59:33;;;;;;;2.35;1.23;;;;;;;;;;5057295;28;20032;-86
2022/08/03 10:01:59;;;;;;;1.23;1.00;;;;;;;;;;5036616;28;20083;-84
2022/08/03 10:04:25;;;;;;;0.85;0.85;;;;;;;;;;5053529;28;20037;-84
2022/08/03 10:07:08;;;;;;;2.97;0.90;;;;;;;;;;5037586;28;20048;-84
2022/08/03 10:09:36;;;;;;;1.98;1.20;;;;;;;;;;5038782;28;20017;-84
2022/08/03 10:12:12;;;;;;;1.10;1.10;;;;;;;;;;5068110;28;20078;-85
2022/08/03 10:14:43;;;;;;;1.75;1.10;;;;;;;;;;5057745;28;20024;-86
2022/08/03 10:17:09;;;;;;;3.03;0.93;;;;;;;;;;5062085;28;20024;-83
2022/08/03 10:19:34;;;;;;;3.45;1.25;;;;;;;;;;5065189;28;20404;-86
2022/08/03 10:22:34;;;;;;;2.38;1.20;;;;;;;;;;5051882;28;20023;-83
2022/08/03 10:25:06;;;;;;;1.33;1.23;;;;;;;;;;5020893;28;20487;-83
2022/08/03 10:27:40;;;;;;;1.00;1.00;;;;;;;;;;5059337;28;20029;-83
2022/08/03 10:30:10;;;;;;;2.65;1.40;;;;;;;;;;5066562;28;20021;-84
2022/08/03 10:33:00;;;;;;;2.53;1.40;;;;;;;;;;5051362;28;20111;-84
2022/08/03 10:35:26;;;;;;;1.92;1.65;;;;;;;;;;5066413;28;20024;-83
2022/08/03 10:37:58;;;;;;;1.02;1.00;;;;;;;;;;5069719;28;20493;-83
2022/08/03 10:40:26;;;;;;;1.23;1.20;;;;;;;;;;5069740;28;20444;-83
2022/08/03 10:42:55;;;;;;;1.63;1.52;;;;;;;;;;5070913;28;20592;-84
2022/08/03 10:45:24;;;;;;;2.90;1.40;;;;;;;;;;5050088;28;20025;-83
2022/08/03 10:47:51;;;;;;;1.38;1.23;;;;;;;;;;5070262;28;20031;-84
2022/08/03 10:50:18;;;;;;;2.22;1.10;;;;;;;;;;5066833;28;20025;-83
2022/08/03 10:53:00;;;;;;;1.65;1.30;;;;;;;;;;5068208;28;20021;-83
2022/08/03 10:58:35;;;;;;;1.40;1.30;;;;;;;;;;5061891;28;20071;-83
2022/08/03 11:01:01;;;;;;;1.35;1.25;;;;;;;;;;5028074;28;20400;-83
2022/08/03 11:03:26;;;;;;;6.50;1.58;;;;;;;;;;5023244;28;20025;-84
2022/08/03 11:05:54;;;;;;;2.97;1.40;;;;;;;;;;5042322;28;20029;-84
2022/08/03 11:08:26;;;;;;;1.45;1.35;;;;;;;;;;5043954;28;20033;-83
2022/08/03 11:10:57;;;;;;;1.35;1.02;;;;;;;;;;5044213;28;20024;-84
2022/08/03 11:13:24;;;;;;;;;;;;;;;;;;5069635;28;20052;-83
2022/08/03 11:15:52;;;;;;;1.40;1.30;;;;;;;;;;5065488;28;19908;-86
2022/08/03 11:18:18;;;;;;;4.28;1.20;;;;;;;;;;5065820;28;20406;-84
2022/08/03 11:20:55;;;;;;;4.15;1.30;;;;;;;;;;5062298;28;20530;-83
2022/08/03 11:23:44;;;;;;;1.25;1.00;;;;;;;;;;5037021;28;20131;-84
2022/08/03 11:26:14;;;;;;;2.90;1.10;;;;;;;;;;5034940;28;20032;-85
2022/08/03 11:28:42;;;;;;;1.30;1.20;;;;;;;;;;5045247;28;20025;-85
2022/08/03 11:31:26;;;;;;;1.27;1.17;;;;;;;;;;5063727;28;20052;-85
2022/08/03 11:34:08;;;;;;;1.30;1.20;;;;;;;;;;5052755;28;20100;-86
2022/08/03 11:37:11;;;;;;;1.02;1.02;;;;;;;;;;5023220;28;20034;-86
2022/08/03 11:39:43;;;;;;;1.70;1.42;;;;;;;;;;5059285;28;20028;-86
2022/08/03 11:42:21;;;;;;;1.58;1.40;;;;;;;;;;5045230;28;20031;-84
2022/08/03 11:44:48;;;;;;;2.42;1.20;;;;;;;;;;5062566;28;20032;-84
2022/08/03 11:47:16;;;;;;;1.30;1.20;;;;;;;;;;5052853;28;20075;-85
2022/08/03 11:49:45;;;;;;;1.30;1.30;;;;;;;;;;5053701;28;20021;-85
2022/08/03 11:52:10;;;;;;;1.33;0.90;;;;;;;;;;5041983;28;20506;-84
2022/08/03 11:54:36;;;;;;;2.28;1.23;;;;;;;;;;5040070;28;20025;-84
2022/08/03 11:57:01;;;;;;;3.00;1.75;;;;;;;;;;5042408;28;20056;-85
2022/08/03 11:59:34;;;;;;;1.27;1.15;;;;;;;;;;5050453;28;20545;-86
2022/08/03 12:02:06;;;;;;;1.23;1.20;;;;;;;;;;5027591;28;20029;-87
2022/08/03 12:04:52;;;;;;;2.05;1.45;;;;;;;;;;5045084;28;20027;-85
2022/08/03 12:07:17;;;;;;;3.00;1.48;;;;;;;;;;5027596;28;20564;-84
2022/08/03 12:10:00;;;;;;;1.52;1.42;;;;;;;;;;5032340;28;20499;-85
2022/08/03 12:12:26;;;;;;;1.63;1.45;;;;;;;;;;5065736;28;20479;-84
2022/08/03 12:14:51;;;;;;;1.58;1.40;;;;;;;;;;5044912;28;20091;-84
2022/08/03 12:17:16;;;;;;;2.35;1.40;;;;;;;;;;5062495;28;20049;-84
2022/08/03 12:19:43;;;;;;;1.50;1.20;;;;;;;;;;5043052;28;20017;-85
2022/08/03 12:22:08;;;;;;;2.25;1.42;;;;;;;;;;5053884;28;20025;-85
2022/08/03 12:24:43;;;;;;;1.65;1.40;;;;;;;;;;5059255;28;20264;-84
2022/08/03 12:27:09;;;;;;;1.85;1.13;;;;;;;;;;5077404;28;20029;-84
2022/08/03 12:29:35;;;;;;;3.08;1.20;;;;;;;;;;5072508;28;20039;-88
2022/08/03 12:32:00;;;;;;;1.30;1.15;;;;;;;;;;5063369;28;20048;-83
2022/08/03 12:34:48;;;;;;;1.33;1.25;;;;;;;;;;5041551;28;20020;-87
2022/08/03 12:37:16;;;;;;;1.45;1.30;;;;;;;;;;5040942;28;20056;-84
2022/08/03 12:39:49;;;;;;;1.30;1.20;;;;;;;;;;5062917;28;20036;-85
2022/08/03 12:42:15;;;;;;;1.60;1.50;;;;;;;;;;5071794;28;20036;-86
2022/08/03 12:44:40;;;;;;;1.10;1.00;;;;;;;;;;5070473;28;20032;-85
2022/08/03 12:47:06;;;;;;;2.75;1.30;;;;;;;;;;5069383;28;20044;-84
2022/08/03 12:49:45;;;;;;;1.48;1.33;;;;;;;;;;5066043;28;20552;-84
2022/08/03 12:52:10;;;;;;;1.30;1.17;;;;;;;;;;5061528;28;21814;-84
2022/08/03 12:54:35;;;;;;;1.73;1.38;;;;;;;;;;5046418;28;20059;-84
2022/08/03 12:57:06;;;;;;;1.50;1.40;;;;;;;;;;5025616;28;20116;-83
2022/08/03 12:59:32;;;;;;;1.40;1.30;;;;;;;;;;5027282;28;20075;-83
2022/08/03 13:01:58;;;;;;;1.48;1.38;;;;;;;;;;5023166;28;20044;-84
2022/08/03 13:04:44;;;;;;;1.48;1.38;;;;;;;;;;5021054;28;20025;-84
2022/08/03 13:07:10;;;;;;;1.42;1.33;;;;;;;;;;5039934;28;20085;-85
2022/08/03 13:09:44;;;;;;;1.48;1.38;;;;;;;;;;5021197;28;20033;-83
2022/08/03 13:12:13;;;;;;;3.78;1.30;;;;;;;;;;5028548;28;20028;-84
2022/08/03 13:14:39;;;;;;;2.70;1.20;;;;;;;;;;5054332;28;20032;-85
2022/08/03 13:17:05;;;;;;;2.72;1.58;;;;;;;;;;5033420;28;20032;-86
2022/08/03 13:19:35;;;;;;;1.45;1.35;;;;;;;;;;5037334;28;20039;-86
2022/08/03 13:22:09;;;;;;;2.85;1.38;;;;;;;;;;5047356;28;20124;-85
2022/08/03 13:24:35;;;;;;;1.35;0.98;;;;;;;;;;5048473;28;20561;-84
2022/08/03 13:27:01;;;;;;;2.70;1.65;;;;;;;;;;5025217;28;20033;-85
2022/08/03 13:29:26;;;;;;;3.05;1.60;;;;;;;;;;5047329;28;20950;-84
2022/08/03 13:31:52;;;;;;;2.05;1.30;;;;;;;;;;5043064;28;20495;-84
2022/08/03 13:34:18;;;;;;;1.48;1.38;;;;;;;;;;5041597;28;20036;-82
2022/08/03 13:36:43;;;;;;;1.85;1.30;;;;;;;;;;5039441;28;20033;-84
2022/08/03 13:39:08;;;;;;;2.05;1.30;;;;;;;;;;5019513;28;20494;-84
2022/08/03 13:41:34;;;;;;;1.30;1.20;;;;;;;;;;5020107;28;20036;-83
2022/08/03 13:43:59;;;;;;;1.10;1.00;;;;;;;;;;5051171;28;20437;-84
2022/08/03 13:46:25;;;;;;;1.48;1.30;;;;;;;;;;5040317;28;20041;-85
2022/08/03 13:48:51;;;;;;;2.22;1.48;;;;;;;;;;5040597;28;20040;-86
2022/08/03 13:51:17;;;;;;;1.60;1.50;;;;;;;;;;5031401;28;20037;-83
2022/08/03 13:53:42;;;;;;;2.85;1.27;;;;;;;;;;5037692;28;20033;-84
2022/08/03 13:56:07;;;;;;;1.40;1.30;;;;;;;;;;5039901;28;20033;-84
2022/08/03 13:58:33;;;;;;;2.97;1.50;;;;;;;;;;5045449;28;20406;-83
2022/08/03 14:01:05;;;;;;;7.10;1.50;;;;;;;;;;5035334;28;20029;-84
2022/08/03 14:03:33;;;;;;;1.55;1.45;;;;;;;;;;5026439;28;20041;-83
2022/08/03 14:05:59;;;;;;;1.50;1.33;;;;;;;;;;5051558;28;20017;-85
2022/08/03 14:08:24;;;;;;;3.47;1.42;;;;;;;;;;5022832;28;20039;-83
2022/08/03 14:10:49;;;;;;;2.03;1.40;;;;;;;;;;5041055;28;20017;-84
2022/08/03 14:13:15;;;;;;;1.80;1.40;;;;;;;;;;5062956;28;20037;-85
2022/08/03 14:15:41;;;;;;;1.50;1.35;;;;;;;;;;5046435;28;20021;-85
2022/08/03 14:18:08;;;;;;;1.60;1.50;;;;;;;;;;5064809;28;20299;-84
2022/08/03 14:20:33;;;;;;;1.45;1.35;;;;;;;;;;5067637;28;20036;-85
2022/08/03 14:22:59;;;;;;;1.30;1.30;;;;;;;;;;5053971;28;20021;-83
2022/08/03 14:25:24;;;;;;;1.88;1.30;;;;;;;;;;5040969;28;20029;-84
2022/08/03 14:27:50;;;;;;;1.30;1.20;;;;;;;;;;5058190;28;20049;-84
2022/08/03 14:30:15;;;;;;;1.92;1.30;;;;;;;;;;5063058;28;20029;-85
2022/08/03 14:32:41;;;;;;;3.40;1.42;;;;;;;;;;5062840;28;20063;-85
2022/08/03 14:35:07;;;;;;;1.75;1.48;;;;;;;;;;5058973;28;20368;-84
2022/08/03 14:37:32;;;;;;;1.48;1.30;;;;;;;;;;5042290;28;20098;-83
2022/08/03 14:39:58;;;;;;;1.55;1.45;;;;;;;;;;5061918;28;20013;-83
2022/08/03 14:42:24;;;;;;;1.40;1.30;;;;;;;;;;5060480;28;20040;-83
2022/08/03 14:44:49;;;;;;;1.35;1.25;;;;;;;;;;5041709;28;20025;-86
2022/08/03 14:47:14;;;;;;;3.08;1.40;;;;;;;;;;5057480;28;20056;-84
2022/08/03 14:49:40;;;;;;;1.55;1.23;;;;;;;;;;5077885;28;20025;-85
2022/08/03 14:52:06;;;;;;;1.30;1.20;;;;;;;;;;5063055;28;20048;-85
2022/08/03 14:54:31;;;;;;;1.50;1.33;;;;;;;;;;5060787;28;20036;-86
2022/08/03 14:56:57;;;;;;;3.22;1.45;;;;;;;;;;5060729;28;20020;-86